createdAt,value
2022-08-23T00:02:30.079Z,36.97
2022-08-23T00:05:08.900Z,36.88
2022-08-23T00:07:45.219Z,36.88
2022-08-23T00:10:17.931Z,39.90
2022-08-23T00:12:48.633Z,41.22
2022-08-23T00:15:21.809Z,41.70
2022-08-23T00:17:51.857Z,36.97
2022-08-23T00:20:21.746Z,44.72
2022-08-23T00:22:51.375Z,47.53
2022-08-23T00:25:21.167Z,51.22
2022-08-23T00:27:50.767Z,32.47
2022-08-23T00:30:21.006Z,41.65
2022-08-23T00:32:50.929Z,41.40
2022-08-23T00:35:27.494Z,52.22
2022-08-23T00:38:32.039Z,39.35
2022-08-23T01:26:48.833Z,55.88
2022-08-23T01:29:20.408Z,58.35
2022-08-23T01:31:52.015Z,60.78
2022-08-23T01:34:28.354Z,55.58
2022-08-23T01:37:00.183Z,61.75
2022-08-23T01:39:30.375Z,75.00
2022-08-23T01:41:59.957Z,76.00
2022-08-23T01:44:30.445Z,63.70
2022-08-23T01:46:59.654Z,58.40
2022-08-23T01:49:28.840Z,55.20
2022-08-23T01:51:58.251Z,58.33
2022-08-23T01:54:27.539Z,53.75
2022-08-23T01:56:57.115Z,56.58
2022-08-23T01:59:26.859Z,46.38
2022-08-23T02:01:57.789Z,57.22
2022-08-23T02:04:28.828Z,67.30
2022-08-23T02:06:58.230Z,62.13
2022-08-23T02:09:27.470Z,59.90
2022-08-23T02:12:00.712Z,56.83
2022-08-23T02:14:31.639Z,59.10
2022-08-23T02:17:04.189Z,59.80
2022-08-23T02:19:35.940Z,44.58
2022-08-23T02:22:07.812Z,56.95
2022-08-23T02:24:41.105Z,57.70
2022-08-23T02:27:11.119Z,45.25
2022-08-23T02:29:44.059Z,54.25
2022-08-23T02:32:15.811Z,61.03
2022-08-23T02:35:04.441Z,47.20
2022-08-23T02:37:36.852Z,38.40
2022-08-23T02:40:07.990Z,36.30
2022-08-23T02:42:37.594Z,31.90
2022-08-23T02:45:09.963Z,37.20
2022-08-23T02:47:46.925Z,42.08
2022-08-23T02:50:21.605Z,50.28
2022-08-23T02:52:51.984Z,30.45
2022-08-23T02:55:21.559Z,44.75
2022-08-23T02:57:50.999Z,47.67
2022-08-23T03:00:21.525Z,99.40
2022-08-23T03:02:52.661Z,43.55
2022-08-23T03:05:22.662Z,37.70
2022-08-23T03:07:52.251Z,39.22
2022-08-23T03:10:23.559Z,68.73
2022-08-23T03:12:59.971Z,29.65
2022-08-23T03:15:29.541Z,37.22
2022-08-23T03:17:59.403Z,32.70
2022-08-23T03:20:29.327Z,37.25
2022-08-23T03:22:58.821Z,43.88
2022-08-23T03:25:29.241Z,39.88
2022-08-23T03:28:12.404Z,46.47
2022-08-23T03:30:46.040Z,36.45
2022-08-23T03:33:16.009Z,34.35
2022-08-23T03:35:48.445Z,28.85
2022-08-23T03:38:21.024Z,60.45
2022-08-23T03:43:25.711Z,36.80
2022-08-23T03:45:55.774Z,38.80
2022-08-23T03:48:29.296Z,48.75
2022-08-23T03:51:02.098Z,29.08
2022-08-23T03:53:33.607Z,28.20
2022-08-23T03:56:04.547Z,36.58
2022-08-23T03:58:34.053Z,54.42
2022-08-23T04:01:09.232Z,30.92
2022-08-23T04:03:43.458Z,31.13
2022-08-23T04:06:17.916Z,35.55
2022-08-23T04:08:48.386Z,26.95
2022-08-23T04:11:54.701Z,31.90
2022-08-23T04:14:25.815Z,34.10
2022-08-23T04:16:56.766Z,39.90
2022-08-23T04:19:26.651Z,25.98
2022-08-23T04:22:05.907Z,34.47
2022-08-23T04:24:42.244Z,30.83
2022-08-23T04:27:13.265Z,25.02
2022-08-23T04:29:43.584Z,23.95
2022-08-23T04:32:26.589Z,23.35
2022-08-23T04:35:00.640Z,28.33
2022-08-23T04:37:31.524Z,20.33
2022-08-23T04:40:18.968Z,35.92
2022-08-23T04:42:48.703Z,30.58
2022-08-23T04:45:19.089Z,31.88
2022-08-23T04:47:51.857Z,24.65
2022-08-23T04:50:21.806Z,34.15
2022-08-23T04:53:13.831Z,23.80
2022-08-23T04:55:53.831Z,46.70
2022-08-23T04:58:23.629Z,26.98
2022-08-23T05:00:54.754Z,29.60
2022-08-23T05:03:28.738Z,29.67
2022-08-23T05:06:00.430Z,38.75
2022-08-23T05:08:37.330Z,30.88
2022-08-23T05:11:10.215Z,36.78
2022-08-23T05:13:41.761Z,29.38
2022-08-23T05:16:13.102Z,28.58
2022-08-23T05:18:50.121Z,34.60
2022-08-23T05:21:22.791Z,31.15
2022-08-23T05:23:54.818Z,32.25
2022-08-23T05:26:27.620Z,23.05
2022-08-23T05:29:02.614Z,39.08
2022-08-23T05:31:40.541Z,25.33
2022-08-23T05:34:10.061Z,43.60
2022-08-23T05:37:01.175Z,26.77
2022-08-23T05:39:37.457Z,27.92
2022-08-23T05:42:12.035Z,43.55
2022-08-23T05:44:41.460Z,41.10
2022-08-23T05:47:16.009Z,39.05
2022-08-23T05:49:52.605Z,43.80
2022-08-23T05:52:23.131Z,34.17
2022-08-23T05:54:53.236Z,34.00
2022-08-23T05:57:48.530Z,29.02
2022-08-23T06:00:18.399Z,38.58
2022-08-23T06:03:01.123Z,28.92
2022-08-23T06:05:30.887Z,33.50
2022-08-23T06:08:01.906Z,29.17
2022-08-23T06:10:39.285Z,33.33
2022-08-23T06:13:42.103Z,29.17
2022-08-23T06:16:15.619Z,26.15
2022-08-23T06:18:48.431Z,23.63
2022-08-23T06:21:44.800Z,29.88
2022-08-23T06:24:14.920Z,26.05
2022-08-23T06:27:16.184Z,26.52
2022-08-23T06:29:47.242Z,36.92
2022-08-23T06:32:36.504Z,32.63
2022-08-23T06:35:37.816Z,33.13
2022-08-23T06:38:27.482Z,41.05
2022-08-23T06:41:33.656Z,32.35
2022-08-23T06:44:23.386Z,24.65
2022-08-23T06:47:13.774Z,31.83
2022-08-23T06:49:55.460Z,32.22
2022-08-23T06:52:51.797Z,25.38
2022-08-23T06:55:53.125Z,30.33
2022-08-23T06:58:36.765Z,23.27
2022-08-23T07:01:45.792Z,29.25
2022-08-23T07:04:31.134Z,32.15
2022-08-23T07:07:17.883Z,30.35
2022-08-23T07:09:49.438Z,23.25
2022-08-23T07:12:21.964Z,26.80
2022-08-23T07:14:54.295Z,28.33
2022-08-23T07:17:28.137Z,35.83
2022-08-23T07:20:02.131Z,26.40
2022-08-23T07:22:34.050Z,25.75
2022-08-23T07:25:06.682Z,24.75
2022-08-23T07:27:37.499Z,29.38
2022-08-23T07:30:12.140Z,29.55
2022-08-23T07:32:44.481Z,35.30
2022-08-23T07:35:30.023Z,29.17
2022-08-23T07:38:02.445Z,29.33
2022-08-23T07:40:38.977Z,34.45
2022-08-23T07:43:11.194Z,26.88
2022-08-23T07:45:44.495Z,35.33
2022-08-23T07:48:18.127Z,33.22
2022-08-23T07:51:18.023Z,27.67
2022-08-23T07:53:49.411Z,31.08
2022-08-23T07:56:22.463Z,31.98
2022-08-23T07:59:03.806Z,33.38
2022-08-23T08:01:53.039Z,30.23
2022-08-23T08:04:23.936Z,23.77
2022-08-23T08:07:17.192Z,30.35
2022-08-23T08:09:46.547Z,25.70
2022-08-23T08:12:17.701Z,32.60
2022-08-23T08:14:49.590Z,23.40
2022-08-23T08:17:26.828Z,28.85
2022-08-23T08:20:06.372Z,41.17
2022-08-23T08:22:59.222Z,30.10
2022-08-23T08:25:39.317Z,26.58
2022-08-23T08:28:15.768Z,28.35
2022-08-23T08:30:45.455Z,30.10
2022-08-23T08:33:16.773Z,34.10
2022-08-23T08:35:57.800Z,42.08
2022-08-23T08:38:32.917Z,31.42
2022-08-23T08:41:26.240Z,26.80
2022-08-23T08:44:15.859Z,35.75
2022-08-23T08:46:51.285Z,39.50
2022-08-23T08:49:46.720Z,32.88
2022-08-23T08:52:24.800Z,39.20
2022-08-23T08:55:26.900Z,25.73
2022-08-23T08:57:58.261Z,39.28
2022-08-23T09:00:36.226Z,27.30
2022-08-23T09:03:15.234Z,30.60
2022-08-23T09:06:01.521Z,27.13
2022-08-23T09:09:04.835Z,41.10
2022-08-23T09:11:40.608Z,27.05
2022-08-23T09:14:23.586Z,24.92
2022-08-23T09:17:05.498Z,27.92
2022-08-23T09:22:42.756Z,24.45
2022-08-23T09:25:22.620Z,22.80
2022-08-23T09:28:03.537Z,30.63
2022-08-23T09:30:58.029Z,21.52
2022-08-23T09:33:47.577Z,24.40
2022-08-23T09:36:38.788Z,23.23
2022-08-23T09:39:30.617Z,25.05
2022-08-23T09:42:10.153Z,36.65
2022-08-23T09:44:43.490Z,33.75
2022-08-23T09:47:18.467Z,28.30
2022-08-23T09:49:53.810Z,23.30
2022-08-23T09:52:34.464Z,26.33
2022-08-23T09:55:14.258Z,19.95
2022-08-23T09:57:49.160Z,24.77
2022-08-23T10:00:29.144Z,28.90
2022-08-23T10:03:23.606Z,21.48
2022-08-23T10:06:03.492Z,34.67
2022-08-23T10:08:43.027Z,19.95
2022-08-23T10:11:22.204Z,32.33
2022-08-23T10:13:54.713Z,25.27
2022-08-23T10:16:54.257Z,24.40
2022-08-23T10:19:43.256Z,35.63
2022-08-23T10:22:27.252Z,24.95
2022-08-23T10:25:13.968Z,29.58
2022-08-23T10:28:20.217Z,29.13
2022-08-23T10:31:11.279Z,20.60
2022-08-23T10:34:20.123Z,30.17
2022-08-23T10:36:53.513Z,24.98
2022-08-23T10:39:28.712Z,30.77
2022-08-23T10:42:18.740Z,18.38
2022-08-23T10:45:12.896Z,28.90
2022-08-23T10:48:00.489Z,20.65
2022-08-23T10:50:42.855Z,31.05
2022-08-23T10:53:23.093Z,24.00
2022-08-23T10:56:06.960Z,25.02
2022-08-23T10:58:51.169Z,25.13
2022-08-23T11:01:43.798Z,18.35
2022-08-23T11:04:47.864Z,15.95
2022-08-23T11:07:36.451Z,23.95
2022-08-23T11:10:20.337Z,25.10
2022-08-23T11:13:25.525Z,23.20
2022-08-23T11:16:04.163Z,22.63
2022-08-23T11:18:54.287Z,23.45
2022-08-23T11:21:41.780Z,21.65
2022-08-23T11:24:18.010Z,26.83
2022-08-23T11:26:52.585Z,21.63
2022-08-23T11:29:25.059Z,24.10
2022-08-23T11:32:29.935Z,36.33
2022-08-23T11:35:31.660Z,22.52
2022-08-23T11:38:04.982Z,21.45
2022-08-23T11:41:15.515Z,25.40
2022-08-23T11:44:09.644Z,31.02
2022-08-23T11:46:56.338Z,35.05
2022-08-23T11:49:32.233Z,30.65
2022-08-23T11:52:31.148Z,29.75
2022-08-23T11:55:19.361Z,22.25
2022-08-23T11:58:20.744Z,51.25
2022-08-23T12:01:01.814Z,28.38
2022-08-23T12:04:01.241Z,27.77
2022-08-23T12:06:54.089Z,31.38
2022-08-23T12:09:24.284Z,25.30
2022-08-23T12:12:02.588Z,34.10
2022-08-23T12:14:50.595Z,29.15
2022-08-23T12:18:17.327Z,23.50
2022-08-23T12:21:07.665Z,25.27
2022-08-23T12:23:56.237Z,27.52
2022-08-23T12:26:39.897Z,27.52
2022-08-23T12:29:31.218Z,29.30
2022-08-23T12:32:17.616Z,23.63
2022-08-23T12:34:55.870Z,31.70
2022-08-23T12:37:51.480Z,29.52
2022-08-23T12:40:42.807Z,30.05
2022-08-23T12:43:17.420Z,32.45
2022-08-23T12:45:54.578Z,29.83
2022-08-23T12:48:28.057Z,22.60
2022-08-23T12:51:08.616Z,33.92
2022-08-23T12:53:44.756Z,27.05
2022-08-23T12:56:31.614Z,26.15
2022-08-23T12:59:08.112Z,30.90
2022-08-23T13:01:40.546Z,39.03
2022-08-23T13:04:16.444Z,39.38
2022-08-23T13:06:47.769Z,33.72
2022-08-23T13:09:38.817Z,36.60
2022-08-23T13:12:09.630Z,34.38
2022-08-23T13:14:42.071Z,39.20
2022-08-23T13:17:39.695Z,33.10
2022-08-23T13:20:09.111Z,29.95
2022-08-23T13:22:40.604Z,31.27
2022-08-23T13:25:31.162Z,34.05
2022-08-23T13:28:23.311Z,34.58
2022-08-23T13:31:05.650Z,33.78
2022-08-23T13:33:35.325Z,42.22
2022-08-23T13:36:18.592Z,30.17
2022-08-23T13:38:51.608Z,30.33
2022-08-23T13:41:38.630Z,26.20
2022-08-23T13:44:11.444Z,38.40
2022-08-23T13:46:47.754Z,31.13
2022-08-23T13:49:31.915Z,32.72
2022-08-23T13:52:18.705Z,31.15
2022-08-23T13:54:52.445Z,31.83
2022-08-23T13:57:24.868Z,41.75
2022-08-23T14:00:00.157Z,38.30
2022-08-23T14:02:31.195Z,40.75
2022-08-23T14:05:00.645Z,34.57
2022-08-23T14:07:29.642Z,32.88
2022-08-23T14:09:59.669Z,30.70
2022-08-23T14:12:34.885Z,51.75
2022-08-23T14:15:08.885Z,38.00
2022-08-23T14:17:44.634Z,31.85
2022-08-23T14:20:43.834Z,36.30
2022-08-23T14:23:12.331Z,42.55
2022-08-23T14:25:42.328Z,39.80
2022-08-23T14:28:11.616Z,43.55
2022-08-23T14:30:41.162Z,41.60
2022-08-23T14:33:10.385Z,40.35
2022-08-23T14:35:40.344Z,53.00
2022-08-23T14:38:09.639Z,50.28
2022-08-23T14:40:38.569Z,51.97
2022-08-23T14:43:08.633Z,52.75
2022-08-23T14:45:38.562Z,32.42
2022-08-23T14:48:08.013Z,35.08
2022-08-23T14:50:37.464Z,35.13
2022-08-23T14:53:07.489Z,32.30
2022-08-23T14:55:36.941Z,37.30
2022-08-23T14:58:06.248Z,45.72
2022-08-23T15:00:37.516Z,34.00
2022-08-23T15:05:39.613Z,28.38
2022-08-23T15:08:08.689Z,32.83
2022-08-23T15:12:57.037Z,35.58
2022-08-23T15:13:33.891Z,31.58
2022-08-23T15:16:09.782Z,39.25
2022-08-23T15:18:40.947Z,35.47
2022-08-23T15:21:11.371Z,36.80
2022-08-23T15:23:40.767Z,36.25
2022-08-23T15:26:10.871Z,31.98
2022-08-23T15:28:41.518Z,34.42
2022-08-23T15:31:12.949Z,36.38
2022-08-23T15:33:42.567Z,33.08
2022-08-23T15:36:14.787Z,32.75
2022-08-23T15:38:48.637Z,39.88
2022-08-23T15:41:21.773Z,45.55
2022-08-23T15:43:50.911Z,40.08
2022-08-23T15:46:24.083Z,37.30
2022-08-23T15:48:59.564Z,39.05
2022-08-23T15:51:29.146Z,38.72
2022-08-23T15:53:59.062Z,33.65
2022-08-23T15:56:49.552Z,53.63
2022-08-23T15:59:20.463Z,33.70
2022-08-23T16:01:50.434Z,54.70
2022-08-23T16:04:20.422Z,38.88
2022-08-23T16:06:49.783Z,40.60
2022-08-23T16:09:25.259Z,42.03
2022-08-23T16:11:58.387Z,40.72
2022-08-23T16:14:32.253Z,43.72
2022-08-23T16:17:02.504Z,40.50
2022-08-23T16:19:35.509Z,52.25
2022-08-23T16:22:05.265Z,48.53
2022-08-23T16:24:34.957Z,45.30
2022-08-23T16:27:07.062Z,53.47
2022-08-23T16:29:37.887Z,46.20
2022-08-23T16:32:08.907Z,38.17
2022-08-23T16:34:38.452Z,44.85
2022-08-23T16:37:11.030Z,43.22
2022-08-23T16:39:42.199Z,36.03
2022-08-23T16:42:11.902Z,50.70
2022-08-23T16:44:40.974Z,40.35
2022-08-23T16:47:12.083Z,31.98
2022-08-23T16:49:41.898Z,39.05
2022-08-23T16:52:11.962Z,44.40
2022-08-23T16:54:41.886Z,37.50
2022-08-23T16:57:11.756Z,27.25
2022-08-23T16:59:41.120Z,43.95
2022-08-23T17:02:23.505Z,37.88
2022-08-23T17:04:52.902Z,27.40
2022-08-23T17:07:22.249Z,30.05
2022-08-23T17:09:51.920Z,29.98
2022-08-23T17:12:21.815Z,28.88
2022-08-23T17:14:52.385Z,40.33
2022-08-23T17:17:21.739Z,27.50
2022-08-23T17:19:51.136Z,31.88
2022-08-23T17:22:20.824Z,31.00
2022-08-23T17:24:53.338Z,28.55
2022-08-23T17:27:22.985Z,28.27
2022-08-23T17:29:52.566Z,25.73
2022-08-23T17:32:25.859Z,22.88
2022-08-23T17:34:54.975Z,25.52
2022-08-23T17:37:25.477Z,28.55
2022-08-23T17:39:54.765Z,25.00
2022-08-23T17:42:24.015Z,26.45
2022-08-23T17:44:53.624Z,28.23
2022-08-23T17:47:25.059Z,31.63
2022-08-23T17:49:54.861Z,30.33
2022-08-23T17:52:27.148Z,29.23
2022-08-23T17:54:56.972Z,29.83
2022-08-23T17:57:27.079Z,32.10
2022-08-23T17:59:59.849Z,31.40
2022-08-23T18:02:29.478Z,28.38
2022-08-23T18:04:59.318Z,33.15
2022-08-23T18:07:29.796Z,28.35
2022-08-23T18:09:59.264Z,28.48
2022-08-23T18:12:28.748Z,25.67
2022-08-23T18:14:58.391Z,21.23
2022-08-23T18:17:28.163Z,24.30
2022-08-23T18:19:58.461Z,29.65
2022-08-23T18:22:28.407Z,20.67
2022-08-23T18:24:58.260Z,23.35
2022-08-23T18:27:46.238Z,22.95
2022-08-23T18:30:16.013Z,28.83
2022-08-23T18:32:46.197Z,23.38
2022-08-23T18:35:15.770Z,20.27
2022-08-23T18:37:45.366Z,27.17
2022-08-23T18:40:15.801Z,24.13
2022-08-23T18:42:46.193Z,23.42
2022-08-23T18:45:20.533Z,20.30
2022-08-23T18:47:56.267Z,29.63
2022-08-23T18:50:30.413Z,23.55
2022-08-23T18:53:02.982Z,23.83
2022-08-23T18:55:38.369Z,22.00
2022-08-23T18:58:09.522Z,24.45
2022-08-23T19:00:39.869Z,29.00
2022-08-23T19:03:11.159Z,20.63
2022-08-23T19:05:42.762Z,22.85
2022-08-23T19:08:13.742Z,22.35
2022-08-23T19:10:44.784Z,22.83
2022-08-23T19:13:14.248Z,22.48
2022-08-23T19:15:43.565Z,210.52
2022-08-23T19:18:13.361Z,87.47
2022-08-23T19:20:42.953Z,53.90
2022-08-23T19:23:12.583Z,63.88
2022-08-23T19:25:44.081Z,41.17
2022-08-23T19:28:14.765Z,21.90
2022-08-23T19:30:45.261Z,19.67
2022-08-23T19:33:14.723Z,23.30
2022-08-23T19:35:44.783Z,25.73
2022-08-23T19:38:15.447Z,13.63
2022-08-23T19:40:44.528Z,14.35
2022-08-23T19:43:13.947Z,18.98
2022-08-23T19:45:43.227Z,33.20
2022-08-23T19:48:12.538Z,20.30
2022-08-23T19:50:43.099Z,18.10
2022-08-23T19:53:12.332Z,29.92
2022-08-23T19:55:46.268Z,11.60
2022-08-23T19:58:16.776Z,14.30
2022-08-23T20:00:46.958Z,12.95
2022-08-23T20:03:16.330Z,9.07
2022-08-23T20:05:45.671Z,16.63
2022-08-23T20:08:15.125Z,12.55
2022-08-23T20:10:45.810Z,12.93
2022-08-23T20:13:14.967Z,10.82
2022-08-23T20:15:44.423Z,9.30
2022-08-23T20:18:13.787Z,12.13
2022-08-23T20:20:43.884Z,9.38
2022-08-23T20:23:31.559Z,6.15
2022-08-23T20:26:00.895Z,9.23
2022-08-23T20:28:30.092Z,8.75
2022-08-23T20:31:00.346Z,10.43
2022-08-23T20:33:32.525Z,10.30
2022-08-23T20:36:02.048Z,12.52
2022-08-23T20:38:33.867Z,6.35
2022-08-23T20:43:33.875Z,4.22
2022-08-23T20:46:05.232Z,4.38
2022-08-23T20:48:35.332Z,6.53
2022-08-23T20:51:07.184Z,5.40
2022-08-23T20:53:37.474Z,5.47
2022-08-23T20:56:06.976Z,5.18
2022-08-23T20:58:36.784Z,14.07
2022-08-23T21:01:09.353Z,9.40
2022-08-23T21:03:40.932Z,4.38
2022-08-23T21:06:31.828Z,20.23
2022-08-23T21:09:01.315Z,4.75
2022-08-23T21:11:30.847Z,20.80
2022-08-23T21:14:00.450Z,4.97
2022-08-23T21:16:29.666Z,3.10
2022-08-23T21:18:59.056Z,3.17
2022-08-23T21:21:29.387Z,7.22
2022-08-23T21:23:59.753Z,4.03
2022-08-23T21:26:29.034Z,9.68
2022-08-23T21:28:58.223Z,6.18
2022-08-23T21:31:28.231Z,5.80
2022-08-23T21:33:58.070Z,5.13
2022-08-23T21:36:28.507Z,7.72
2022-08-23T21:38:58.196Z,6.65
2022-08-23T21:41:40.601Z,11.80
2022-08-23T21:44:13.521Z,8.15
2022-08-23T21:46:43.341Z,16.38
2022-08-23T21:49:13.699Z,9.65
2022-08-23T21:51:43.514Z,10.27
2022-08-23T21:54:14.870Z,15.50
2022-08-23T21:56:44.291Z,12.30
2022-08-23T21:59:18.961Z,11.95
2022-08-23T22:01:48.909Z,15.15
2022-08-23T22:04:18.609Z,9.65
2022-08-23T22:06:49.177Z,14.88
2022-08-23T22:09:26.188Z,15.68
2022-08-23T22:12:01.635Z,14.48
2022-08-23T22:14:32.988Z,16.58
2022-08-23T22:17:02.982Z,12.50
2022-08-23T22:19:32.355Z,17.65
2022-08-23T22:22:02.320Z,12.75
2022-08-23T22:24:32.807Z,12.70
2022-08-23T22:27:01.990Z,17.10
2022-08-23T22:29:31.536Z,14.18
2022-08-23T22:32:01.302Z,14.15
2022-08-23T22:34:31.216Z,13.48
2022-08-23T22:37:01.009Z,14.75
2022-08-23T22:39:30.721Z,16.17
2022-08-23T22:42:00.324Z,15.52
2022-08-23T22:44:29.825Z,14.68
2022-08-23T22:47:00.058Z,18.42
2022-08-23T22:49:29.625Z,16.13
2022-08-23T22:52:00.663Z,13.70
2022-08-23T22:54:30.104Z,17.67
2022-08-23T22:56:59.787Z,14.63
2022-08-23T22:59:31.163Z,17.75
2022-08-23T23:02:03.609Z,15.25
2022-08-23T23:04:33.930Z,13.65
2022-08-23T23:07:03.880Z,18.23
2022-08-23T23:09:33.281Z,14.52
2022-08-23T23:12:04.125Z,14.32
2022-08-23T23:14:33.506Z,17.33
2022-08-23T23:17:02.862Z,14.00
2022-08-23T23:19:50.329Z,18.77
2022-08-23T23:22:19.540Z,12.40
2022-08-23T23:24:49.012Z,13.48
2022-08-23T23:27:18.617Z,13.85
2022-08-23T23:29:47.734Z,14.00
2022-08-23T23:32:19.294Z,15.60
2022-08-23T23:34:49.013Z,17.77
2022-08-23T23:37:18.193Z,16.88
2022-08-23T23:39:47.707Z,27.92
2022-08-23T23:42:16.673Z,13.65
2022-08-23T23:44:46.035Z,14.27
2022-08-23T23:47:15.407Z,9.68
2022-08-23T23:49:45.561Z,13.20
2022-08-23T23:52:14.415Z,12.07
2022-08-23T23:54:43.801Z,17.25
2022-08-23T23:57:13.118Z,10.82
2022-08-23T23:59:42.884Z,12.43
